Aeroporto :
LOGIN :

Iscrizione | Disclaimer

   EN    FR    IT 

 










Sommario :    VFR   VFR Marginale   IFR   IFR Intensivo   IFR Molto Intensivo
Visibilità : 
Base nubi : 
>= 8 km
>= 3000ft
5 / 8 km
1000 / 3000 ft
1500m / 5 km
500 / 1000 ft
800 / 1500m
200 / 500 ft
< 800m
< 200 ft
Simboli :   Temporali  Nebbia  Neve Forte  Precipitazioni Forti  Vento > 20 kt
SIGMETs :   Varie  Temporali  Ghiacco  Turbolenza  Onda orograficha  Ceneri Vulcaniche






- Altitudine del aeroporto : 1043 ft
- Codice IATA : SLD


LZSL - Sliac

ULTIMO METAR :
  • 152230Z 00000KT 2000 BR FEW002 OVC021 01/01 Q1017

METARs OBSOLETI :
  • 152200Z 00000KT 1500 0300SE BR BCFG SCT002 OVC023 00/00 Q1017
  • 152130Z VRB01KT 1500 0200SE BR BCFG SCT001 OVC025 01/01 Q1016
  • 152100Z VRB02KT 1500 BR SCT001 OVC028 01/01 Q1016
  • 152033Z 22001KT 0400 R36/0600D FG SCT001 OVC030 00/00 Q1016
  • 152000Z VRB02KT 2000 BR FEW002 01/01 Q1016

TAF TAF LZSL
Valido dal 15 a 21 ore il 16 a 06 ore UTC


152000Z 1521/1606 VRB02KT 6000 SCT001
TEMPO 1521/1606 1200 BR
PROB40
TEMPO 1521/1606 0200 FZFG BKN001



MetMap, La meteo Aeronautica in un colpo d'occhio ! - Copyright ORBIFLY Dicembre 2007 - Disclaimer

ORBIFLY MET'MAP TEAM :

Programmazione e sviluppo : Alexandra Zaïnal
Concezione : Baudouin d'Aumeries
Aiuto per la programmazione : Marc-Olivier Méhu
Supporto tecnico e logistico : Manuel Goepfert
Aiuto per la traduzione : Arnaldo La Scala

Contatto : metmap@orbifly.com




FONTI E CREDITI :

   NOAA